^^
Datos históricos de la estación: Murcia-Puente Tocinos
Diario Informe para Diciembre 03, 2021 Unidades:  Ingés    Métrico   Ambas
Diario Semanal Mensual Anual
  Máxima: Mínima: Promedio:
Temperatura: 62.8 °F 47.8 °F 55.2 °F
Punto de rocio: 38.1 °F 25.9 °F 32.9 °F
Humedad: 56% 35% 43%
Velocidad viento: 15.9mph 2mph 7.6mph
Racha viento: 31.1mph - -
Viento- - OSO
Presión: 30.2 in 30 in -
Precipitación: 0 in    
 
 
Tabla de datos para Diciembre 03, 2021
Hora Temperatura Punto de rocio Presión Viento Velocidad viento Racha viento Humedad Intensidad lluvia(por hora) Nubes
00:04 52.2 °F 30.4 °F 30 in ONO 10 mph 19.7 mph 43% 0 in
00:09 52 °F 30.2 °F 30 in ONO 10.1 mph 17.3 mph 43% 0 in
00:14 51.8 °F 30 °F 30 in ONO 10.7 mph 21.9 mph 43% 0 in
00:19 51.6 °F 29.5 °F 30 in ONO 10.9 mph 23 mph 42.4% 0 in
00:24 51.6 °F 29.3 °F 30 in ONO 12.3 mph 18.5 mph 42% 0 in
00:29 51.6 °F 29.3 °F 30.1 in ONO 11.9 mph 19.7 mph 42% 0 in
00:34 51.4 °F 29.1 °F 30.1 in ONO 10.2 mph 16.8 mph 42% 0 in
00:39 51.3 °F 28.9 °F 30.1 in ONO 10.2 mph 21.9 mph 41.9% 0 in
00:44 51.3 °F 28.4 °F 30.1 in ONO 10.2 mph 27.9 mph 41% 0 in
00:49 51.3 °F 28.2 °F 30.1 in ONO 11 mph 26.8 mph 41% 0 in
00:54 51.3 °F 28.2 °F 30.1 in ONO 15.2 mph 21.9 mph 41% 0 in
00:59 51.1 °F 28.2 °F 30.1 in ONO 14.8 mph 23.5 mph 40.9% 0 in
01:04 51.3 °F 27.7 °F 30 in ONO 13.7 mph 24.2 mph 40% 0 in
01:09 51.3 °F 27.7 °F 30 in ONO 13.7 mph 24.2 mph 39.8% 0 in
01:14 51.3 °F 27.5 °F 30.1 in ONO 14 mph 20.7 mph 39.6% 0 in
01:19 51.1 °F 27.3 °F 30.1 in ONO 13.3 mph 17.3 mph 39.5% 0 in
01:24 51.3 °F 27 °F 30.1 in ONO 10 mph 20.7 mph 39% 0 in
01:29 51.3 °F 27.1 °F 30.1 in ONO 10.2 mph 18.4 mph 39% 0 in
01:34 51.1 °F 27 °F 30.1 in ONO 11.2 mph 16.1 mph 39% 0 in
01:39 50.7 °F 26.8 °F 30.1 in ONO 10.9 mph 15.2 mph 39.5% 0 in
01:44 50.5 °F 26.8 °F 30.1 in Oeste 9.7 mph 15.6 mph 39.4% 0 in
01:49 50.5 °F 26.6 °F 30 in Oeste 9.4 mph 17.3 mph 39.1% 0 in
01:54 50.5 °F 26.2 °F 30 in Oeste 8.1 mph 11.5 mph 38.4% 0 in
01:59 50.7 °F 26.1 °F 30 in Oeste 7.8 mph 15 mph 38% 0 in
02:04 50.7 °F 25.9 °F 30 in OSO 6.9 mph 9.2 mph 37.8% 0 in
02:09 50.7 °F 25.9 °F 30 in SO 6.4 mph 8.1 mph 37.9% 0 in
02:14 50.7 °F 26.1 °F 30.1 in SO 4.3 mph 8.7 mph 38% 0 in
02:19 50.7 °F 26.1 °F 30.1 in OSO 4.3 mph 13 mph 38% 0 in
02:24 50.9 °F 26.2 °F 30.1 in OSO 4.7 mph 12.7 mph 38% 0 in
02:29 51.3 °F 26.2 °F 30.1 in OSO 4.7 mph 8.1 mph 37.9% 0 in
02:34 51.3 °F 26.4 °F 30 in OSO 4.7 mph 12.7 mph 38% 0 in
02:39 51.3 °F 26.4 °F 30 in OSO 4.8 mph 8.1 mph 38.1% 0 in
02:44 50.9 °F 26.8 °F 30 in OSO 5.2 mph 11.2 mph 39% 0 in
02:49 50.5 °F 27 °F 30 in SO 5.2 mph 11.5 mph 39.7% 0 in
02:54 50.5 °F 27 °F 30 in SO 5.2 mph 8.1 mph 40% 0 in
02:59 50.2 °F 27 °F 30.1 in SSO 5.3 mph 9.7 mph 40.4% 0 in
03:04 49.6 °F 27 °F 30.1 in SSO 5.9 mph 11.5 mph 41% 0 in
03:09 49.6 °F 27.1 °F 30.1 in SSO 5.8 mph 10.4 mph 41.3% 0 in
03:14 49.6 °F 27.5 °F 30.1 in SO 5.4 mph 6.9 mph 42% 0 in
03:19 49.8 °F 27.5 °F 30.1 in SO 5.3 mph 10.4 mph 42% 0 in
03:24 50 °F 27.9 °F 30.1 in SSO 4.7 mph 8.1 mph 42% 0 in
03:29 50.2 °F 27.9 °F 30.1 in SSO 4.7 mph 8.5 mph 42% 0 in
03:34 50 °F 28.2 °F 30.1 in SSO 4.7 mph 9.2 mph 42.6% 0 in
03:39 49.6 °F 28.4 °F 30.1 in SSO 4.9 mph 9.7 mph 43.7% 0 in
03:44 49.3 °F 28.6 °F 30.1 in SSO 5.9 mph 9.2 mph 44.6% 0 in
03:49 48.9 °F 28.6 °F 30.1 in SSO 5.8 mph 9.2 mph 45% 0 in
03:54 49.1 °F 28.6 °F 30.1 in OSO 5.2 mph 9.7 mph 45% 0 in
03:59 49.3 °F 28.8 °F 30.1 in SO 5.1 mph 6.9 mph 45% 0 in
04:04 49.3 °F 28.8 °F 30.1 in ESE 4.7 mph 4.6 mph 45% 0 in
04:09 49.1 °F 28.8 °F 30.1 in SSE 4.2 mph 3.5 mph 45.5% 0 in
04:14 48.7 °F 28.9 °F 30.1 in SE 2 mph 5.9 mph 46% 0 in
04:19 48.6 °F 28.8 °F 30.1 in ESE 2.3 mph 7.4 mph 46.3% 0 in
04:24 48.2 °F 28.9 °F 30.1 in ESE 3.6 mph 8.5 mph 47% 0 in
04:29 47.8 °F 28.8 °F 30.1 in SE 3.9 mph 8.1 mph 47.2% 0 in
04:34 47.8 °F 28.6 °F 30.1 in SE 5.2 mph 7.4 mph 47.1% 0 in
04:39 47.8 °F 28.6 °F 30.1 in Sur 5.2 mph 7.4 mph 47% 0 in
04:44 47.8 °F 28.6 °F 30.1 in SSO 5.4 mph 6.4 mph 47% 0 in
04:49 47.8 °F 28.6 °F 30 in SSE 5.3 mph 8.1 mph 47% 0 in
04:54 48 °F 28.9 °F 30 in SSE 4.7 mph 8.5 mph 47.4% 0 in
04:59 48.2 °F 28.8 °F 30 in SSE 5 mph 10.2 mph 47% 0 in
05:04 48.6 °F 29.3 °F 30 in SSE 5.9 mph 10.4 mph 47% 0 in
05:09 48.7 °F 29.5 °F 30 in SE 6 mph 9.2 mph 47% 0 in
05:14 48.7 °F 29.5 °F 30 in SE 6.4 mph 11.5 mph 47% 0 in
05:19 48.7 °F 29.5 °F 30 in SSE 6.4 mph 10.4 mph 47% 0 in
05:24 49.1 °F 29.5 °F 30 in SSE 6.4 mph 11.5 mph 46.3% 0 in
05:29 49.5 °F 29.5 °F 30 in Sur 6.3 mph 9.2 mph 46% 0 in
05:34 49.8 °F 29.3 °F 30 in Sur 6.2 mph 9.2 mph 45.1% 0 in
05:39 50.2 °F 29.5 °F 30 in SSE 6 mph 9.7 mph 44.7% 0 in
05:44 50.4 °F 29.1 °F 30 in SSE 5.2 mph 11.2 mph 44% 0 in
05:49 50.5 °F 29.3 °F 30 in SSE 5.5 mph 11.8 mph 44% 0 in
05:54 50.5 °F 29.5 °F 30 in SSE 7.4 mph 17.3 mph 43.8% 0 in
05:59 51.1 °F 29.3 °F 30 in SSE 7.7 mph 17.8 mph 43% 0 in
06:04 51.4 °F 29.3 °F 30 in Sur 8.7 mph 18.4 mph 42.1% 0 in
06:09 51.6 °F 29.3 °F 30 in Sur 8.9 mph 16.1 mph 42% 0 in
06:14 51.6 °F 29.3 °F 30 in Sur 10 mph 13.8 mph 42% 0 in
06:19 51.6 °F 29.3 °F 30 in SSO 9.4 mph 10.4 mph 42% 0 in
06:24 51.4 °F 29.1 °F 30 in SO 6.9 mph 15.6 mph 42% 0 in
06:29 51.4 °F 29.1 °F 30.1 in OSO 7 mph 16.1 mph 42% 0 in
06:34 51.6 °F 29.3 °F 30.1 in SSO 7.4 mph 11.5 mph 42% 0 in
06:39 51.4 °F 29.5 °F 30.1 in SO 6.8 mph 8.1 mph 42.6% 0 in
06:44 51.4 °F 29.7 °F 30.1 in SO 4.3 mph 12.7 mph 43% 0 in
06:49 51.3 °F 29.5 °F 30.1 in OSO 4.3 mph 8.1 mph 43% 0 in
06:54 51.3 °F 29.5 °F 30.1 in SO 4.7 mph 9.7 mph 43% 0 in
06:59 51.3 °F 30 °F 30.1 in SO 4.7 mph 9.2 mph 43.8% 0 in
07:04 51.1 °F 30 °F 30 in OSO 4.7 mph 7.4 mph 44% 0 in
07:09 51.1 °F 30 °F 30 in ONO 4.8 mph 15 mph 44% 0 in
07:14 51.3 °F 30 °F 30.1 in Oeste 5.2 mph 12.7 mph 44% 0 in
07:19 51.3 °F 30 °F 30.1 in ONO 5.6 mph 20.7 mph 44% 0 in
07:24 51.4 °F 30.4 °F 30.1 in ONO 7.4 mph 21.9 mph 44% 0 in
07:29 51.6 °F 30.4 °F 30.1 in ONO 7.8 mph 13.8 mph 44% 0 in
07:34 51.4 °F 30.2 °F 30.1 in ONO 10 mph 15 mph 44% 0 in
07:39 51.4 °F 30.4 °F 30.1 in ONO 9.3 mph 11.8 mph 44.2% 0 in
07:44 51.4 °F 30.6 °F 30.1 in ONO 6.4 mph 15 mph 44.5% 0 in
07:49 51.4 °F 30.4 °F 30.1 in ONO 6.7 mph 12.7 mph 44.1% 0 in
07:54 51.6 °F 30.6 °F 30.1 in Oeste 8.1 mph 12.3 mph 44.4% 0 in
07:59 51.6 °F 30.7 °F 30.1 in ONO 7.7 mph 12.7 mph 44.6% 0 in
08:04 51.8 °F 31.1 °F 30.1 in ONO 6.2 mph 8.1 mph 44.7% 0 in
08:09 51.8 °F 31.1 °F 30.1 in ONO 5.8 mph 6.9 mph 45% 0 in
08:14 51.6 °F 30.9 °F 30.1 in Oeste 4 mph 12.3 mph 45% 0 in
08:19 51.8 °F 31.1 °F 30.1 in Oeste 4.2 mph 14 mph 45% 0 in
08:24 52 °F 31.3 °F 30.1 in Oeste 5.4 mph 11.8 mph 45% 0 in
08:29 52 °F 31.3 °F 30.1 in Oeste 5.5 mph 10.7 mph 45% 0 in
08:34 52 °F 31.3 °F 30.1 in Oeste 6.2 mph 10.4 mph 45% 0 in
08:39 52.2 °F 31.3 °F 30.1 in OSO 6.2 mph 16.1 mph 45% 0 in
08:44 52.3 °F 31.3 °F 30.1 in Oeste 6.2 mph 10.7 mph 44.5% 0 in
08:49 52.3 °F 31.1 °F 30.1 in SSO 5.8 mph 8.1 mph 44% 0 in
08:54 52.7 °F 31.5 °F 30.1 in SE 4 mph 4.6 mph 44% 0 in
08:59 53.1 °F 31.3 °F 30.1 in SO 4 mph 10.7 mph 43.4% 0 in
09:04 53.1 °F 31.5 °F 30.1 in OSO 4 mph 9.2 mph 43.7% 0 in
09:09 53.1 °F 31.5 °F 30.1 in OSO 4 mph 11.5 mph 43.5% 0 in
09:14 53.2 °F 31.5 °F 30.1 in Oeste 4 mph 6.9 mph 43.4% 0 in
09:19 53.2 °F 31.6 °F 30.1 in ONO 3.9 mph 5.2 mph 43.3% 0 in
09:24 53.6 °F 31.8 °F 30.1 in Oeste 3.1 mph 6.9 mph 43.4% 0 in
09:29 54.1 °F 32 °F 30.1 in SE 3.3 mph 8.1 mph 43% 0 in
09:34 54.1 °F 31.8 °F 30.1 in SO 4 mph 14 mph 42.4% 0 in
09:39 54.1 °F 32 °F 30.1 in SO 4.4 mph 11.5 mph 42.7% 0 in
09:44 54.3 °F 31.8 °F 30.1 in SO 6.2 mph 12.7 mph 42.2% 0 in
09:49 54.5 °F 32 °F 30.1 in SO 6.2 mph 11.8 mph 42.1% 0 in
09:54 54.9 °F 32.2 °F 30.1 in Oeste 6.2 mph 16.3 mph 42% 0 in
09:59 54.9 °F 32.2 °F 30.1 in Oeste 6.2 mph 12.7 mph 41.9% 0 in
10:04 55 °F 32.4 °F 30.1 in Oeste 6.2 mph 9.2 mph 42% 0 in
10:09 55.2 °F 32.4 °F 30.1 in Oeste 6.2 mph 9.2 mph 41.8% 0 in
10:14 55.4 °F 32.5 °F 30.1 in Oeste 5.9 mph 13 mph 41.9% 0 in
10:19 55.6 °F 32.7 °F 30.1 in Oeste 6.2 mph 13.8 mph 41.7% 0 in
10:24 55.8 °F 32.4 °F 30.1 in Oeste 7.4 mph 22.3 mph 41% 0 in
10:29 55.8 °F 32.2 °F 30.1 in Oeste 8.1 mph 21.9 mph 40.7% 0 in
10:34 55.9 °F 32.2 °F 30.1 in Oeste 11.4 mph 25.3 mph 40.5% 0 in
10:39 55.9 °F 32.2 °F 30.1 in Oeste 11.5 mph 18.4 mph 40.2% 0 in
10:44 56.1 °F 32.2 °F 30.1 in ONO 11.8 mph 19.6 mph 40% 0 in
10:49 56.5 °F 32.4 °F 30.1 in Oeste 11.6 mph 19.6 mph 40% 0 in
10:54 56.7 °F 32.2 °F 30.1 in Oeste 10.7 mph 18.5 mph 39.4% 0 in
10:59 56.7 °F 32 °F 30.1 in ONO 11.1 mph 25.3 mph 39% 0 in
11:04 56.8 °F 32.2 °F 30.1 in Oeste 12.3 mph 23 mph 39% 0 in
11:09 57 °F 32.4 °F 30.1 in Oeste 12.6 mph 23.5 mph 39% 0 in
11:14 57.2 °F 32.4 °F 30.1 in Oeste 13.7 mph 24.6 mph 39% 0 in
11:19 57.4 °F 32.4 °F 30.1 in ONO 13.4 mph 23 mph 38.4% 0 in
11:24 57.6 °F 32.2 °F 30.1 in Oeste 11.8 mph 25.6 mph 38% 0 in
11:29 57.7 °F 32.4 °F 30.1 in ONO 11.7 mph 17 mph 38% 0 in
11:34 57.9 °F 32.4 °F 30.1 in ONO 11.2 mph 22.3 mph 38% 0 in
11:39 58.1 °F 32.7 °F 30.1 in ONO 11 mph 19.6 mph 38% 0 in
11:44 58.5 °F 32.9 °F 30.1 in ONO 10.2 mph 27.9 mph 38.1% 0 in
11:49 58.5 °F 33.1 °F 30.1 in ONO 10.5 mph 27.9 mph 38% 0 in
11:54 58.6 °F 33.1 °F 30.1 in ONO 11.8 mph 31.1 mph 38% 0 in
11:59 58.6 °F 33.1 °F 30.1 in ONO 12.5 mph 23.5 mph 38% 0 in
12:04 58.8 °F 33.3 °F 30.1 in ONO 14.7 mph 26.5 mph 38% 0 in
12:09 59 °F 33.4 °F 30.1 in ONO 14.7 mph 27.9 mph 37.9% 0 in
12:14 59.2 °F 32.9 °F 30.1 in NO 14.5 mph 27.9 mph 37% 0 in
12:19 59.4 °F 33.3 °F 30.1 in ONO 14.6 mph 27.6 mph 37.3% 0 in
12:24 59.4 °F 33.1 °F 30.1 in ONO 15.2 mph 31.1 mph 37% 0 in
12:29 59.5 °F 33.1 °F 30.1 in ONO 15.3 mph 28.8 mph 37% 0 in
12:34 59.7 °F 33.3 °F 30.1 in ONO 15.9 mph 25.6 mph 36.8% 0 in
12:39 59.7 °F 32.7 °F 30.1 in ONO 15.7 mph 28.8 mph 36% 0 in
12:44 59.9 °F 33.1 °F 30.1 in ONO 14.7 mph 26.5 mph 36.3% 0 in
12:49 60.3 °F 33.3 °F 30.1 in ONO 14.3 mph 22.3 mph 36.3% 0 in
12:54 60.3 °F 33.3 °F 30.1 in ONO 12.5 mph 25.3 mph 36% 0 in
12:59 60.3 °F 33.3 °F 30.1 in ONO 12.9 mph 20.7 mph 36% 0 in
13:04 60.6 °F 33.1 °F 30.1 in Oeste 14.5 mph 23 mph 35.5% 0 in
13:09 60.6 °F 33.1 °F 30.1 in ONO 14.2 mph 25.3 mph 35.3% 0 in
13:14 61 °F 33.1 °F 30.1 in ONO 13 mph 29.9 mph 35% 0 in
13:19 60.6 °F 32.9 °F 30.1 in ONO 13.4 mph 25.6 mph 35% 0 in
13:24 60.8 °F 33.1 °F 30.1 in Oeste 15.2 mph 25.3 mph 35.2% 0 in
13:29 61.2 °F 33.3 °F 30.1 in ONO 15 mph 22.3 mph 35% 0 in
13:34 61.2 °F 33.3 °F 30.1 in ONO 14 mph 24.2 mph 35% 0 in
13:39 61 °F 33.1 °F 30.1 in ONO 14.2 mph 28.8 mph 35% 0 in
13:44 61.2 °F 33.6 °F 30.1 in Oeste 15.2 mph 23 mph 35.4% 0 in
13:49 61.2 °F 33.3 °F 30.1 in ONO 14.7 mph 23.5 mph 35% 0 in
13:54 61.2 °F 33.6 °F 30.1 in ONO 12.3 mph 25.3 mph 35.5% 0 in
13:59 61.3 °F 34 °F 30.1 in ONO 12.4 mph 25.6 mph 35.8% 0 in
14:04 61.3 °F 33.6 °F 30.1 in Oeste 12.5 mph 25.3 mph 35.3% 0 in
14:09 61.5 °F 34.2 °F 30.1 in ONO 12.4 mph 20.7 mph 36% 0 in
14:14 61.5 °F 33.8 °F 30.1 in ONO 11.8 mph 25.3 mph 35.3% 0 in
14:19 61.5 °F 34 °F 30.1 in ONO 11.9 mph 22.3 mph 35.5% 0 in
14:24 61.5 °F 34.3 °F 30.1 in Oeste 12.3 mph 20.8 mph 36% 0 in
14:29 61.5 °F 34.2 °F 30.1 in ONO 12.4 mph 23 mph 35.7% 0 in
14:34 61.7 °F 34.5 °F 30.1 in ONO 13 mph 20.1 mph 36% 0 in
14:39 61.9 °F 34.5 °F 30.1 in ONO 12.8 mph 20.7 mph 36% 0 in
14:44 62.1 °F 34.7 °F 30.1 in ONO 11.8 mph 24.2 mph 36% 0 in
14:49 62.1 °F 34.7 °F 30.1 in ONO 11.9 mph 23.5 mph 36% 0 in
14:54 62.1 °F 34.3 °F 30.1 in ONO 12.5 mph 21.9 mph 35.5% 0 in
14:59 62.1 °F 34.2 °F 30.1 in ONO 12.7 mph 26.5 mph 35% 0 in
15:04 62.2 °F 34.2 °F 30.1 in NO 13.5 mph 22.5 mph 35% 0 in
15:09 62.2 °F 34.2 °F 30.1 in ONO 13.2 mph 23 mph 35% 0 in
15:14 62.2 °F 34.3 °F 30.1 in ONO 11.8 mph 21.9 mph 35% 0 in
15:19 62.4 °F 34.3 °F 30.1 in ONO 11.7 mph 20.7 mph 35% 0 in
15:24 62.4 °F 34.3 °F 30.1 in ONO 11.2 mph 17.5 mph 35% 0 in
15:29 62.4 °F 34.5 °F 30.1 in ONO 10.8 mph 12.7 mph 35.1% 0 in
15:34 62.8 °F 34.7 °F 30.1 in ONO 9.2 mph 16.3 mph 35% 0 in
15:39 62.8 °F 34.5 °F 30.1 in ONO 9.2 mph 18.5 mph 35% 0 in
15:44 62.4 °F 34.3 °F 30.1 in NO 9.2 mph 17.3 mph 35% 0 in
15:49 62.4 °F 34.3 °F 30.1 in ONO 9 mph 17.3 mph 35% 0 in
15:54 62.6 °F 35.2 °F 30.1 in ONO 8.1 mph 17.5 mph 35.8% 0 in
15:59 62.6 °F 34.9 °F 30.1 in Oeste 8.6 mph 21.3 mph 35.6% 0 in
16:04 62.4 °F 35.1 °F 30.1 in ONO 10.2 mph 20.7 mph 36% 0 in
16:09 62.2 °F 35.4 °F 30.1 in ONO 10.5 mph 19 mph 36.5% 0 in
16:14 62.2 °F 35.6 °F 30.1 in ONO 11.8 mph 18.4 mph 37% 0 in
16:19 62.2 °F 35.6 °F 30.1 in ONO 11.7 mph 16.1 mph 37% 0 in
16:24 62.1 °F 35.4 °F 30.1 in ONO 11.2 mph 20.7 mph 37% 0 in
16:29 62.1 °F 35.6 °F 30.1 in ONO 11.1 mph 16.3 mph 37% 0 in
16:34 62.1 °F 35.6 °F 30.1 in ONO 10.7 mph 17.5 mph 37.2% 0 in
16:39 62.1 °F 36 °F 30.1 in NO 10.5 mph 18.4 mph 37.7% 0 in
16:44 62.1 °F 36.1 °F 30.1 in NO 9.7 mph 16.1 mph 38% 0 in
16:49 61.9 °F 36 °F 30.1 in ONO 9.6 mph 17.3 mph 38% 0 in
16:54 61.9 °F 36 °F 30.1 in ONO 9.2 mph 15 mph 38% 0 in
16:59 61.7 °F 36.5 °F 30.1 in ONO 8.9 mph 16.3 mph 38.9% 0 in
17:04 61.7 °F 36.5 °F 30.1 in ONO 8.1 mph 13 mph 39% 0 in
17:09 61.5 °F 36.3 °F 30.1 in ONO 8 mph 15.2 mph 39% 0 in
17:14 61.3 °F 36.3 °F 30.1 in ONO 7.6 mph 18.4 mph 39.1% 0 in
17:19 61.3 °F 36.7 °F 30.1 in ONO 7.9 mph 13 mph 40% 0 in
17:24 61.2 °F 36.7 °F 30.1 in ONO 9.2 mph 15 mph 40% 0 in
17:29 61.2 °F 36.5 °F 30.1 in ONO 9 mph 15 mph 40% 0 in
17:34 61 °F 36.9 °F 30.1 in ONO 8.1 mph 12.7 mph 40.5% 0 in
17:39 60.8 °F 36.9 °F 30.1 in ONO 7.7 mph 10.4 mph 41% 0 in
17:44 60.4 °F 36.7 °F 30.1 in ONO 5.9 mph 10.4 mph 41% 0 in
17:49 60.3 °F 36.9 °F 30.1 in ONO 6 mph 10.4 mph 41.6% 0 in
17:54 60.1 °F 37 °F 30.1 in Oeste 6.2 mph 10.4 mph 42% 0 in
17:59 59.9 °F 36.9 °F 30.1 in Oeste 5.8 mph 6.2 mph 42.2% 0 in
18:04 59.7 °F 37.2 °F 30.1 in Oeste 4.3 mph 8.1 mph 43% 0 in
18:09 59.5 °F 37 °F 30.1 in Oeste 4.3 mph 10.4 mph 43% 0 in
18:14 59.4 °F 37 °F 30.1 in Oeste 4.3 mph 6.9 mph 43.2% 0 in
18:19 59.4 °F 37.4 °F 30.1 in Oeste 4.3 mph 11.4 mph 44% 0 in
18:24 59.2 °F 37.2 °F 30.1 in Oeste 4.7 mph 11.5 mph 44% 0 in
18:29 59.2 °F 37.2 °F 30.2 in Oeste 4.9 mph 14 mph 44% 0 in
18:34 59.2 °F 37.6 °F 30.2 in Oeste 5.9 mph 8.7 mph 44.6% 0 in
18:39 58.8 °F 37.6 °F 30.2 in ONO 5.8 mph 11.8 mph 45% 0 in
18:44 58.8 °F 37.4 °F 30.2 in ONO 5.4 mph 6.9 mph 45% 0 in
18:49 58.6 °F 37.2 °F 30.2 in ONO 5.2 mph 6.9 mph 45% 0 in
18:54 58.6 °F 37.8 °F 30.2 in NO 4 mph 5.8 mph 45.9% 0 in
18:59 58.5 °F 37.8 °F 30.2 in ONO 3.7 mph 5.2 mph 46% 0 in
19:04 58.3 °F 37.6 °F 30.2 in ONO 2.9 mph 4.6 mph 46% 0 in
19:09 58.3 °F 37.8 °F 30.2 in Oeste 2.9 mph 4.7 mph 46.3% 0 in
19:14 57.9 °F 37.8 °F 30.2 in OSO 2.9 mph 5.9 mph 47% 0 in
19:19 57.7 °F 37.6 °F 30.2 in Oeste 2.9 mph 4.7 mph 47% 0 in
19:24 57.6 °F 37.9 °F 30.2 in OSO 3.1 mph 5.8 mph 47.7% 0 in
19:29 57.6 °F 37.9 °F 30.2 in SO 3 mph 6.9 mph 48% 0 in
19:34 57.6 °F 37.8 °F 30.2 in Sur 2.9 mph 4.6 mph 47.6% 0 in
19:39 57.7 °F 37.9 °F 30.2 in SE 2.8 mph 4.7 mph 47.4% 0 in
19:44 57.6 °F 38.1 °F 30.2 in ESE 2.4 mph 4.6 mph 48% 0 in
19:49 57.4 °F 38.1 °F 30.2 in SE 2.4 mph 4.6 mph 48.7% 0 in
19:54 57 °F 37.9 °F 30.2 in SSO 2.4 mph 5.9 mph 49% 0 in
19:59 57 °F 38.1 °F 30.2 in SSO 2.7 mph 8.1 mph 49% 0 in
20:04 57.2 °F 37.9 °F 30.2 in SSO 3.6 mph 8.1 mph 48.3% 0 in
20:09 57.2 °F 37.6 °F 30.2 in SSO 3.9 mph 8.5 mph 48% 0 in
20:14 57 °F 37.6 °F 30.2 in SO 5.2 mph 11.8 mph 48% 0 in
20:19 57.4 °F 37.8 °F 30.2 in SO 5.3 mph 11.5 mph 47.8% 0 in
20:24 57.6 °F 37.6 °F 30.2 in SO 5.9 mph 8.1 mph 47% 0 in
20:29 57.4 °F 37.8 °F 30.2 in SSO 5.6 mph 6.9 mph 47.7% 0 in
20:34 57.2 °F 37.8 °F 30.2 in Sur 4.3 mph 7.4 mph 48% 0 in
20:39 56.8 °F 37.8 °F 30.2 in SSE 4.5 mph 9.2 mph 48.8% 0 in
20:44 56.1 °F 37.8 °F 30.2 in SSE 5.2 mph 9.2 mph 49.8% 0 in
20:49 55.6 °F 37.8 °F 30.2 in SSE 5.3 mph 10.4 mph 50.9% 0 in
20:54 55.2 °F 37.8 °F 30.2 in Sur 5.9 mph 9.2 mph 51.9% 0 in
20:59 55 °F 37.6 °F 30.2 in Sur 5.8 mph 9.2 mph 52% 0 in
21:04 54.9 °F 37.6 °F 30.2 in Sur 5.4 mph 8.1 mph 52% 0 in
21:09 54.9 °F 37.6 °F 30.2 in SO 5.2 mph 5.9 mph 52% 0 in
21:14 54.9 °F 37.6 °F 30.2 in SO 4.3 mph 6.2 mph 52% 0 in
21:19 54.9 °F 37.6 °F 30.2 in SO 4.3 mph 7.4 mph 52% 0 in
21:24 54.9 °F 37.6 °F 30.2 in OSO 4.3 mph 6.2 mph 52% 0 in
21:29 54.9 °F 37.6 °F 30.2 in OSO 4.3 mph 6.9 mph 52% 0 in
21:34 54.9 °F 37.6 °F 30.2 in SO 4.3 mph 5.2 mph 52% 0 in
21:39 54.9 °F 37.6 °F 30.2 in SSE 4 mph 4.7 mph 52% 0 in
21:44 54.9 °F 37.8 °F 30.2 in SE 2.9 mph 5.2 mph 52.3% 0 in
21:49 54.3 °F 37.8 °F 30.2 in SSE 3 mph 8.5 mph 53.2% 0 in
21:54 54 °F 37.6 °F 30.2 in Sur 3.6 mph 8.1 mph 54% 0 in
21:59 53.6 °F 37.4 °F 30.2 in SSO 4 mph 7.4 mph 54% 0 in
22:04 53.8 °F 37.6 °F 30.2 in Sur 5.4 mph 8.5 mph 54% 0 in
22:09 54.1 °F 37.6 °F 30.2 in Sur 5.4 mph 8.1 mph 53.6% 0 in
22:14 54.3 °F 37.4 °F 30.2 in SSO 5.4 mph 10.4 mph 52.9% 0 in
22:19 54.7 °F 37.4 °F 30.2 in SSO 5.3 mph 6.9 mph 52% 0 in
22:24 54.9 °F 37.6 °F 30.2 in SSO 5.2 mph 6.9 mph 51.9% 0 in
22:29 55 °F 37.2 °F 30.2 in SSO 5.2 mph 9.7 mph 51% 0 in
22:34 55.2 °F 37.4 °F 30.2 in SSO 5.2 mph 10 mph 51% 0 in
22:39 55.2 °F 36.9 °F 30.2 in SSO 5.3 mph 10.4 mph 50% 0 in
22:44 55.2 °F 36.9 °F 30.2 in SSO 5.9 mph 9.2 mph 50% 0 in
22:49 55.2 °F 37 °F 30.2 in SO 5.7 mph 6.4 mph 50% 0 in
22:54 55.2 °F 36.9 °F 30.2 in SO 4.7 mph 6.9 mph 50% 0 in
22:59 55 °F 36.9 °F 30.2 in SO 4.5 mph 6.9 mph 50% 0 in
23:04 55 °F 36.9 °F 30.2 in Oeste 3.6 mph 4.6 mph 50.3% 0 in
23:09 54.7 °F 37 °F 30.2 in NNO 3.4 mph 4.7 mph 51.3% 0 in
23:14 53.8 °F 37 °F 30.2 in NNO 2.4 mph 4.6 mph 53.1% 0 in
23:19 53.1 °F 37 °F 30.2 in NO 2.5 mph 5.2 mph 54.3% 0 in
23:24 52.9 °F 37 °F 30.2 in NO 2.9 mph 6.2 mph 55% 0 in
23:29 52.7 °F 37 °F 30.2 in Oeste 3.1 mph 6.2 mph 55.3% 0 in
23:34 52.5 °F 37.2 °F 30.2 in OSO 4 mph 5.9 mph 56% 0 in
23:39 52.3 °F 37.2 °F 30.2 in OSO 3.9 mph 5.2 mph 56% 0 in
23:44 52.5 °F 37.2 °F 30.2 in SO 3.6 mph 6.2 mph 56% 0 in
23:49 52.7 °F 37.4 °F 30.2 in SO 3.8 mph 9.2 mph 56% 0 in
23:54 52.7 °F 37.4 °F 30.2 in OSO 4.7 mph 6.9 mph 56% 0 in
23:59 52.5 °F 37.4 °F 30.2 in OSO 4.3 mph 4.6 mph 56% 0 in
Murcia-Puente Tocinos, Espa?a
Compliments of Weather Underground - 3.25 mb

La estación de MeteoMurcia.com, publica sus datos en los siguientes proyectos:

Weather Underground PWS IMURCIAP2 Meteoclimatic www.awekas.at

W3Counter
Web Analytics